Time;durP1;ratioP1;P1;durP2;ratioP2;P2;SDS_P1;SDS_P2;PMS_P1;PMS_P2;Temp;Humidity;BMP_temperature;BMP_pressure;BME280_temperature;BME280_humidity;BME280_pressure;Samples;Min_cycle;Max_cycle;Signal;HPM_P1;HPM_P2
2022/05/14 00:01:00;;;;;;;14.43;3.88;;;13.00;1.00;;;;;;5006296;28;25079;-70
2022/05/14 00:03:27;;;;;;;10.07;2.33;;;12.90;1.00;;;;;;5005089;28;25093;-71
2022/05/14 00:05:54;;;;;;;13.13;2.85;;;12.80;1.00;;;;;;5007140;28;25124;-71
2022/05/14 00:08:22;;;;;;;11.57;3.30;;;12.80;1.00;;;;;;5007029;28;25021;-71
2022/05/14 00:13:33;;;;;;;9.27;3.17;;;12.80;1.00;;;;;;5020363;28;25073;-72
2022/05/14 00:15:59;;;;;;;10.50;2.50;;;12.80;1.00;;;;;;5016644;28;25079;-72
2022/05/14 00:18:24;;;;;;;8.05;2.00;;;12.80;1.00;;;;;;5010131;28;25139;-70
2022/05/14 00:20:51;;;;;;;10.18;2.65;;;12.80;1.00;;;;;;5008969;28;25075;-72
2022/05/14 00:23:17;;;;;;;11.50;2.50;;;12.70;1.00;;;;;;5004442;28;25047;-70
2022/05/14 00:25:43;;;;;;;11.02;2.78;;;12.70;1.00;;;;;;5007067;28;25049;-73
2022/05/14 00:28:09;;;;;;;10.88;2.83;;;12.60;1.00;;;;;;5003476;28;25066;-72
2022/05/14 00:30:36;;;;;;;10.15;2.97;;;12.60;1.00;;;;;;5004703;28;25062;-73
2022/05/14 00:33:02;;;;;;;13.40;3.92;;;12.50;1.00;;;;;;5006421;28;25115;-71
2022/05/14 00:35:28;;;;;;;14.75;3.17;;;12.50;1.00;;;;;;5005366;28;25086;-71
2022/05/14 00:37:54;;;;;;;5.93;2.83;;;12.50;1.00;;;;;;5006259;28;25109;-72
2022/05/14 00:40:22;;;;;;;12.52;3.35;;;12.50;1.00;;;;;;5006412;28;25154;-71
2022/05/14 00:42:47;;;;;;;7.05;2.20;;;12.50;1.00;;;;;;5006864;28;25131;-71
2022/05/14 00:45:14;;;;;;;11.13;3.28;;;12.40;1.00;;;;;;5006676;28;25080;-70
2022/05/14 00:47:42;;;;;;;8.73;2.40;;;12.40;1.00;;;;;;5006028;28;25065;-72
2022/05/14 00:50:37;;;;;;;7.45;2.60;;;12.40;1.00;;;;;;5006704;28;25151;-74
2022/05/14 00:53:20;;;;;;;17.27;4.50;;;12.40;1.00;;;;;;5001279;28;25084;-71
2022/05/14 00:55:48;;;;;;;12.77;3.03;;;12.40;1.00;;;;;;5006611;28;25129;-72
2022/05/14 00:58:25;;;;;;;9.00;3.03;;;12.40;1.00;;;;;;5006166;28;25125;-72
2022/05/14 01:00:50;;;;;;;11.27;3.08;;;12.40;1.00;;;;;;5003889;28;25078;-73
2022/05/14 01:03:16;;;;;;;10.90;3.00;;;12.40;1.00;;;;;;5004718;28;25143;-70
2022/05/14 01:05:42;;;;;;;14.90;3.33;;;12.40;1.00;;;;;;5004367;28;25112;-71
2022/05/14 01:08:07;;;;;;;10.45;3.13;;;12.40;1.00;;;;;;5004738;28;25131;-71
2022/05/14 01:10:40;;;;;;;14.77;3.20;;;12.40;1.00;;;;;;5004413;28;25078;-74
2022/05/14 01:13:05;;;;;;;;;;;12.40;1.00;;;;;;5003836;28;25070;-71
2022/05/14 01:15:45;;;;;;;12.90;3.50;;;12.40;1.00;;;;;;5005924;28;25057;-72
2022/05/14 01:18:12;;;;;;;9.63;2.80;;;12.30;1.20;;;;;;5007936;28;25085;-72
2022/05/14 01:20:38;;;;;;;16.85;3.08;;;12.30;1.80;;;;;;5007725;28;25076;-71
2022/05/14 01:23:23;;;;;;;12.43;3.53;;;12.30;3.40;;;;;;5003011;28;25068;-72
2022/05/14 01:26:29;;;;;;;11.43;3.53;;;12.20;3.50;;;;;;5017256;28;25081;-71
2022/05/14 01:29:01;;;;;;;16.40;3.88;;;12.20;4.70;;;;;;5017721;28;25048;-70
2022/05/14 01:31:27;;;;;;;12.10;3.50;;;12.20;6.30;;;;;;5032036;28;25077;-71
2022/05/14 01:33:54;;;;;;;13.50;4.20;;;12.10;7.70;;;;;;5014283;28;25063;-72
2022/05/14 01:36:20;;;;;;;17.63;4.00;;;12.20;7.10;;;;;;5008942;28;25054;-72
2022/05/14 01:38:46;;;;;;;14.27;4.32;;;12.20;8.60;;;;;;5010005;28;25066;-70
2022/05/14 01:41:12;;;;;;;17.17;3.83;;;12.20;9.40;;;;;;5010043;28;25055;-69
2022/05/14 01:43:38;;;;;;;13.27;3.50;;;12.20;9.50;;;;;;5007214;28;25065;-71
2022/05/14 01:46:04;;;;;;;15.85;4.78;;;12.20;12.10;;;;;;5009211;28;25081;-73
2022/05/14 01:48:30;;;;;;;14.85;4.10;;;12.10;12.20;;;;;;5009589;28;25098;-71
2022/05/14 01:50:56;;;;;;;12.23;4.18;;;12.00;14.60;;;;;;5009724;28;25097;-70
2022/05/14 01:53:22;;;;;;;14.07;3.97;;;12.10;15.20;;;;;;5010690;28;25057;-70
2022/05/14 01:55:47;;;;;;;14.85;4.13;;;12.10;15.40;;;;;;5025285;28;25095;-71
2022/05/14 02:00:57;;;;;;;17.80;4.45;;;12.10;17.10;;;;;;5027306;28;25101;-72
2022/05/14 02:03:23;;;;;;;15.10;4.57;;;12.00;18.80;;;;;;5026122;28;25078;-73
2022/05/14 02:05:48;;;;;;;11.80;5.25;;;12.10;20.20;;;;;;5024109;28;25079;-71
2022/05/14 02:08:14;;;;;;;18.33;5.18;;;12.10;20.80;;;;;;5023504;28;25078;-71
2022/05/14 02:10:40;;;;;;;15.32;6.07;;;12.10;22.00;;;;;;5018132;28;25061;-70
2022/05/14 02:13:06;;;;;;;16.42;5.15;;;12.10;23.40;;;;;;5014571;28;25082;-70
2022/05/14 02:15:31;;;;;;;15.98;5.32;;;12.20;24.50;;;;;;5014374;28;25094;-71
2022/05/14 02:17:57;;;;;;;19.17;5.32;;;12.10;25.70;;;;;;5012411;28;25074;-70
2022/05/14 02:20:24;;;;;;;25.33;5.90;;;12.00;28.00;;;;;;5013672;28;25063;-71
2022/05/14 02:22:49;;;;;;;15.95;5.00;;;12.10;30.30;;;;;;5011140;28;25160;-72
2022/05/14 02:25:19;;;;;;;26.10;6.32;;;12.10;29.60;;;;;;5009727;28;25064;-71
2022/05/14 02:27:45;;;;;;;18.50;6.20;;;12.00;30.50;;;;;;5009695;28;25111;-70
2022/05/14 02:30:11;;;;;;;16.35;5.63;;;12.00;35.90;;;;;;5007915;28;25141;-70
2022/05/14 02:32:38;;;;;;;18.45;5.68;;;12.00;35.90;;;;;;5008160;28;25061;-70
2022/05/14 02:35:04;;;;;;;20.58;6.22;;;11.90;36.90;;;;;;5008251;28;25068;-73
2022/05/14 02:37:29;;;;;;;17.55;5.68;;;11.90;37.00;;;;;;5008087;28;25181;-70
2022/05/14 02:39:56;;;;;;;17.50;5.38;;;11.90;38.40;;;;;;5009319;28;25117;-70
2022/05/14 02:42:21;;;;;;;15.57;6.03;;;11.90;41.40;;;;;;5009189;28;25103;-73
2022/05/14 02:44:47;;;;;;;19.17;5.43;;;11.90;40.20;;;;;;5007916;28;25107;-70
2022/05/14 02:47:12;;;;;;;14.40;5.70;;;11.90;42.00;;;;;;5006619;28;25087;-70
2022/05/14 02:49:38;;;;;;;15.13;6.25;;;11.80;42.30;;;;;;5007987;28;25049;-70
2022/05/14 02:52:05;;;;;;;18.90;6.45;;;11.80;42.00;;;;;;5007876;28;25087;-70
2022/05/14 02:54:31;;;;;;;17.63;5.82;;;11.80;44.00;;;;;;5007501;28;25083;-72
2022/05/14 02:56:56;;;;;;;22.00;5.93;;;11.80;44.70;;;;;;5007621;28;25106;-71
2022/05/14 02:59:22;;;;;;;15.30;5.78;;;11.80;45.10;;;;;;5005218;28;25151;-71
2022/05/14 03:01:50;;;;;;;20.65;6.65;;;11.80;45.00;;;;;;5005477;28;25103;-71
2022/05/14 03:04:22;;;;;;;16.98;6.32;;;11.70;46.40;;;;;;5007212;28;25082;-72
2022/05/14 03:06:49;;;;;;;;;;;11.70;49.10;;;;;;5007613;28;25069;-71
2022/05/14 03:09:14;;;;;;;19.42;6.28;;;11.70;49.40;;;;;;5007935;28;24078;-74
2022/05/14 03:11:40;;;;;;;17.52;7.20;;;11.70;50.90;;;;;;5007959;28;25135;-71
2022/05/14 03:14:06;;;;;;;21.45;8.65;;;11.70;52.80;;;;;;5007880;28;25054;-70
2022/05/14 03:16:31;;;;;;;19.95;7.55;;;11.60;54.60;;;;;;5006821;28;25066;-73
2022/05/14 03:18:57;;;;;;;24.52;7.80;;;11.60;55.20;;;;;;5005425;28;25057;-71
2022/05/14 03:21:22;;;;;;;25.05;8.05;;;11.60;60.60;;;;;;5003486;28;25153;-70
2022/05/14 03:23:49;;;;;;;28.13;8.10;;;11.60;60.90;;;;;;5002146;28;25088;-72
2022/05/14 03:26:15;;;;;;;19.98;8.38;;;11.50;63.80;;;;;;5004454;28;25063;-72
2022/05/14 03:28:41;;;;;;;31.17;10.45;;;11.50;65.90;;;;;;5005222;28;25078;-71
2022/05/14 03:31:06;;;;;;;22.58;8.45;;;11.50;67.40;;;;;;5006298;28;25137;-72
2022/05/14 03:33:32;;;;;;;25.92;8.00;;;11.50;69.70;;;;;;5007527;28;25147;-71
2022/05/14 03:35:57;;;;;;;20.55;8.27;;;11.40;71.00;;;;;;5007612;28;25144;-71
2022/05/14 03:38:23;;;;;;;21.80;8.73;;;11.40;74.40;;;;;;5007772;28;25061;-72
2022/05/14 03:40:49;;;;;;;19.98;9.13;;;11.40;75.60;;;;;;5003847;28;25095;-71
2022/05/14 03:43:14;;;;;;;22.67;8.82;;;11.50;77.60;;;;;;5005215;28;25074;-70
2022/05/14 03:45:40;;;;;;;22.02;9.75;;;11.50;79.20;;;;;;5006858;28;25062;-69
2022/05/14 03:48:06;;;;;;;32.67;10.90;;;11.40;79.60;;;;;;5007450;28;25113;-71
2022/05/14 03:50:31;;;;;;;24.85;10.45;;;11.40;82.60;;;;;;5008898;28;25106;-71
2022/05/14 03:52:57;;;;;;;31.58;10.77;;;11.40;83.70;;;;;;5006063;28;25107;-69
2022/05/14 03:55:23;;;;;;;27.58;11.05;;;11.40;89.20;;;;;;5006440;28;25125;-71
2022/05/14 03:57:48;;;;;;;26.85;11.05;;;11.40;88.90;;;;;;5006487;28;25082;-71
2022/05/14 04:00:15;;;;;;;27.50;13.18;;;11.40;90.90;;;;;;5013889;28;25076;-69
2022/05/14 04:02:40;;;;;;;30.02;12.65;;;11.40;91.90;;;;;;5026774;28;25074;-71
2022/05/14 04:05:07;;;;;;;37.45;13.40;;;11.30;95.40;;;;;;5014460;28;25106;-72
2022/05/14 04:07:32;;;;;;;24.08;10.95;;;11.30;96.10;;;;;;5011400;28;25061;-74
2022/05/14 04:09:58;;;;;;;25.42;12.07;;;11.30;97.90;;;;;;5013185;28;25091;-76
2022/05/14 04:12:27;;;;;;;31.42;13.82;;;11.40;99.90;;;;;;5010356;28;25145;-71
2022/05/14 04:14:53;;;;;;;24.77;12.32;;;11.40;99.60;;;;;;5004276;28;25065;-71
2022/05/14 04:17:18;;;;;;;26.67;13.70;;;11.40;99.40;;;;;;5003075;28;25065;-70
2022/05/14 04:19:47;;;;;;;33.08;13.80;;;11.40;98.80;;;;;;5008080;28;25081;-72
2022/05/14 04:22:13;;;;;;;31.83;14.30;;;11.40;99.90;;;;;;4990134;28;25079;-72
2022/05/14 04:24:38;;;;;;;31.80;14.38;;;11.40;99.90;;;;;;5007020;28;25120;-71
2022/05/14 04:27:04;;;;;;;34.20;16.30;;;11.40;99.90;;;;;;5006301;28;25066;-71
2022/05/14 04:29:30;;;;;;;31.60;15.68;;;11.50;99.90;;;;;;5006229;28;25132;-72
2022/05/14 04:31:55;;;;;;;27.85;15.98;;;11.40;99.90;;;;;;5004640;28;25095;-74
2022/05/14 04:34:21;;;;;;;29.85;14.07;;;11.40;99.90;;;;;;5005043;28;25168;-71
2022/05/14 04:36:46;;;;;;;31.17;15.13;;;11.40;99.90;;;;;;5006706;28;25058;-73
2022/05/14 04:39:12;;;;;;;32.85;14.98;;;11.50;99.90;;;;;;5007485;28;25081;-71
2022/05/14 04:41:38;;;;;;;40.42;16.20;;;11.50;99.90;;;;;;5006870;28;25075;-70
2022/05/14 04:44:04;;;;;;;36.72;15.98;;;11.50;99.90;;;;;;5005933;28;25048;-70
2022/05/14 04:46:35;;;;;;;34.53;15.38;;;11.50;99.90;;;;;;5005856;28;25116;-71
2022/05/14 04:49:01;;;;;;;35.05;17.33;;;11.50;99.90;;;;;;5004937;28;25070;-71
2022/05/14 04:51:27;;;;;;;42.25;17.52;;;11.60;99.90;;;;;;5004110;28;25089;-71
2022/05/14 04:53:52;;;;;;;36.90;17.08;;;11.60;99.90;;;;;;5004601;28;25098;-72
2022/05/14 04:56:18;;;;;;;32.35;15.95;;;11.70;99.90;;;;;;5004679;28;25090;-71
2022/05/14 04:58:44;;;;;;;36.35;16.40;;;11.70;99.90;;;;;;5004597;28;25068;-72
2022/05/14 05:01:09;;;;;;;36.60;16.80;;;11.70;99.90;;;;;;5005217;28;25101;-71
2022/05/14 05:03:36;;;;;;;37.97;16.55;;;11.80;99.90;;;;;;5005289;28;25060;-71
2022/05/14 05:06:01;;;;;;;28.38;15.75;;;11.90;99.90;;;;;;5005997;28;25076;-72
2022/05/14 05:08:31;;;;;;;40.13;16.30;;;12.00;99.90;;;;;;5006237;28;25066;-71
2022/05/14 05:10:57;;;;;;;39.55;16.67;;;12.00;99.90;;;;;;5005428;28;25057;-71
2022/05/14 05:13:25;;;;;;;35.20;17.23;;;12.00;99.90;;;;;;5004591;28;25126;-72
2022/05/14 05:15:51;;;;;;;35.45;16.27;;;12.00;99.90;;;;;;5005230;28;25143;-72
2022/05/14 05:18:17;;;;;;;33.72;16.67;;;12.00;99.90;;;;;;5005582;28;25065;-71
2022/05/14 05:20:44;;;;;;;35.38;16.98;;;12.00;99.90;;;;;;5005324;28;25053;-71
2022/05/14 05:23:16;;;;;;;33.58;17.25;;;12.00;99.90;;;;;;4989359;28;25066;-72
2022/05/14 05:25:42;;;;;;;35.35;16.45;;;12.10;99.90;;;;;;5006924;28;25072;-73
2022/05/14 05:28:07;;;;;;;34.63;16.77;;;12.20;99.90;;;;;;5006662;28;25078;-71
2022/05/14 05:30:33;;;;;;;30.88;16.13;;;12.30;99.90;;;;;;5006391;28;25077;-72
2022/05/14 05:32:58;;;;;;;32.72;16.35;;;12.40;99.90;;;;;;5006539;28;25141;-72
2022/05/14 05:35:24;;;;;;;30.08;16.02;;;12.50;99.90;;;;;;5007518;28;25092;-70
2022/05/14 05:37:50;;;;;;;39.95;16.05;;;12.50;99.90;;;;;;5005727;28;25145;-72
2022/05/14 05:40:17;;;;;;;33.90;16.30;;;12.60;99.90;;;;;;5004990;28;25067;-72
2022/05/14 05:42:44;;;;;;;42.97;16.15;;;12.70;99.90;;;;;;5006293;28;25062;-70
2022/05/14 05:45:10;;;;;;;39.75;16.95;;;12.70;99.90;;;;;;5005078;28;25074;-71
2022/05/14 05:47:36;;;;;;;34.00;15.55;;;12.80;99.90;;;;;;5006700;28;25053;-75
2022/05/14 05:50:01;;;;;;;35.65;17.55;;;12.90;99.90;;;;;;5006536;28;25117;-72
2022/05/14 05:52:27;;;;;;;33.45;15.95;;;13.10;99.90;;;;;;5005739;28;25147;-72
2022/05/14 05:57:39;;;;;;;33.53;14.20;;;13.20;99.90;;;;;;5006382;28;25088;-70
2022/05/14 06:00:13;;;;;;;26.55;14.57;;;13.40;99.90;;;;;;5004834;28;25144;-71
2022/05/14 06:02:38;;;;;;;35.63;16.20;;;13.40;99.90;;;;;;5016828;28;25071;-72
2022/05/14 06:05:05;;;;;;;41.03;15.18;;;13.50;99.90;;;;;;5022493;28;25061;-70
2022/05/14 06:07:32;;;;;;;45.40;16.80;;;13.50;99.90;;;;;;5015398;28;25044;-71
2022/05/14 06:09:57;;;;;;;31.20;14.55;;;13.70;99.90;;;;;;5005555;28;25080;-71
2022/05/14 06:12:23;;;;;;;34.10;14.55;;;13.90;99.90;;;;;;5011610;28;25082;-72
2022/05/14 06:14:49;;;;;;;36.75;15.23;;;14.20;94.30;;;;;;5016178;28;25055;-72
2022/05/14 06:17:15;;;;;;;33.45;14.63;;;14.40;85.20;;;;;;5027902;28;25094;-72
2022/05/14 06:19:42;;;;;;;35.67;14.07;;;14.50;72.60;;;;;;5026976;28;25058;-72
2022/05/14 06:22:08;;;;;;;33.53;13.27;;;14.50;57.30;;;;;;5026251;28;25052;-71
2022/05/14 06:24:36;;;;;;;30.02;14.15;;;14.70;55.20;;;;;;5026699;28;25108;-72
2022/05/14 06:27:02;;;;;;;33.20;14.38;;;14.80;45.10;;;;;;5025681;28;25080;-70
2022/05/14 06:29:28;;;;;;;27.40;12.68;;;14.90;39.30;;;;;;5022526;28;25073;-72
2022/05/14 06:31:54;;;;;;;36.15;15.15;;;15.00;32.00;;;;;;5025638;28;25137;-73
2022/05/14 06:34:20;;;;;;;32.25;13.57;;;15.00;28.80;;;;;;5021205;28;25083;-71
2022/05/14 06:36:45;;;;;;;34.67;14.23;;;15.10;31.50;;;;;;5021592;28;25058;-71
2022/05/14 06:39:11;;;;;;;36.28;14.55;;;15.30;27.90;;;;;;5026166;28;25147;-72
2022/05/14 06:41:38;;;;;;;26.90;13.20;;;15.50;20.50;;;;;;5024182;28;25075;-73
2022/05/14 06:44:04;;;;;;;32.72;12.50;;;15.30;18.90;;;;;;5017206;28;25079;-74
2022/05/14 06:46:29;;;;;;;30.60;13.52;;;15.30;17.30;;;;;;5017763;28;25106;-74
2022/05/14 06:48:55;;;;;;;39.65;13.32;;;15.40;18.30;;;;;;5013518;28;25131;-73
2022/05/14 06:51:25;;;;;;;32.50;12.95;;;15.20;17.00;;;;;;5011994;28;25081;-73
2022/05/14 06:53:53;;;;;;;26.27;13.38;;;15.40;18.30;;;;;;5011928;28;25074;-72
2022/05/14 06:56:21;;;;;;;28.92;13.20;;;15.50;15.20;;;;;;5009829;28;25042;-71
2022/05/14 06:58:49;;;;;;;28.02;12.90;;;15.70;12.40;;;;;;5011998;28;25073;-71
2022/05/14 07:01:17;;;;;;;31.38;12.68;;;15.80;9.50;;;;;;5011622;28;25165;-74
2022/05/14 07:06:39;;;;;;;29.58;12.07;;;15.90;7.20;;;;;;5019292;28;25088;-73
2022/05/14 07:09:17;;;;;;;30.13;12.32;;;16.20;8.80;;;;;;5025581;28;25047;-73
2022/05/14 07:11:44;;;;;;;32.83;12.27;;;16.30;4.70;;;;;;5017855;28;25077;-71
2022/05/14 07:14:12;;;;;;;30.55;13.63;;;16.60;3.50;;;;;;5013018;28;25172;-73
2022/05/14 07:16:38;;;;;;;34.63;12.93;;;16.80;1.00;;;;;;5014756;28;25062;-73
2022/05/14 07:19:06;;;;;;;30.20;11.98;;;17.00;1.00;;;;;;5011344;28;25062;-71
2022/05/14 07:21:34;;;;;;;32.58;11.48;;;17.10;1.00;;;;;;5009280;28;25057;-72
2022/05/14 07:23:59;;;;;;;27.35;11.55;;;17.00;1.00;;;;;;5011733;28;25108;-71
2022/05/14 07:26:27;;;;;;;34.30;11.00;;;17.20;1.00;;;;;;5012201;28;25116;-70
2022/05/14 07:28:52;;;;;;;28.25;11.30;;;17.50;1.00;;;;;;5012463;28;25062;-71
2022/05/14 07:31:18;;;;;;;24.75;10.82;;;17.30;1.00;;;;;;5008527;28;25075;-73
2022/05/14 07:33:44;;;;;;;30.00;9.93;;;17.50;1.00;;;;;;5010480;28;25084;-72
2022/05/14 07:36:18;;;;;;;26.52;10.25;;;17.80;1.00;;;;;;5010998;28;25052;-72
2022/05/14 07:38:44;;;;;;;34.50;9.45;;;17.70;1.00;;;;;;5010638;28;25061;-71
2022/05/14 07:41:12;;;;;;;26.77;10.40;;;18.10;1.00;;;;;;5008641;28;25148;-72
2022/05/14 07:43:39;;;;;;;21.63;8.82;;;18.60;1.00;;;;;;5007501;28;25059;-72
2022/05/14 07:46:11;;;;;;;25.85;8.98;;;18.40;1.00;;;;;;5007857;28;25060;-71
2022/05/14 07:48:38;;;;;;;;;;;18.40;1.00;;;;;;5010446;28;25083;-72
2022/05/14 07:51:06;;;;;;;24.55;8.27;;;18.10;1.00;;;;;;5012598;28;25083;-73
2022/05/14 07:53:32;;;;;;;25.63;8.95;;;17.50;1.00;;;;;;5010375;28;25055;-71
2022/05/14 07:55:58;;;;;;;26.13;8.60;;;17.30;1.00;;;;;;5012301;28;25136;-69
2022/05/14 07:58:24;;;;;;;26.90;7.70;;;17.20;1.00;;;;;;5013229;28;25087;-73
2022/05/14 08:00:50;;;;;;;28.80;7.68;;;17.60;1.00;;;;;;5015409;28;25100;-71
2022/05/14 08:03:16;;;;;;;20.95;8.48;;;17.80;1.00;;;;;;5018039;28;25055;-73
2022/05/14 08:05:42;;;;;;;28.52;9.90;;;17.80;1.00;;;;;;5014512;28;25092;-73
2022/05/14 08:08:08;;;;;;;23.58;9.38;;;17.70;1.00;;;;;;5012158;28;25151;-73
2022/05/14 08:10:34;;;;;;;33.20;10.43;;;18.00;1.00;;;;;;5010334;28;25086;-71
2022/05/14 08:13:00;;;;;;;33.28;9.77;;;18.20;1.00;;;;;;5009104;28;25077;-74
2022/05/14 08:15:27;;;;;;;21.83;8.18;;;18.20;1.00;;;;;;5013671;28;25068;-73
2022/05/14 08:17:53;;;;;;;21.45;7.30;;;18.30;1.00;;;;;;5011648;28;25112;-73
2022/05/14 08:20:20;;;;;;;23.95;7.80;;;18.70;1.00;;;;;;5010611;28;25066;-75
2022/05/14 08:25:30;;;;;;;23.98;7.95;;;18.50;1.00;;;;;;5012477;28;25096;-71
2022/05/14 08:27:57;;;;;;;18.38;7.25;;;18.20;1.00;;;;;;5012527;28;25095;-73
2022/05/14 08:30:29;;;;;;;24.13;7.43;;;18.20;1.00;;;;;;5012275;28;25147;-73
2022/05/14 08:32:55;;;;;;;20.35;6.28;;;18.60;1.00;;;;;;5011247;28;25060;-71
2022/05/14 08:35:21;;;;;;;17.60;6.32;;;18.20;1.00;;;;;;5014026;28;25055;-74
2022/05/14 08:37:51;;;;;;;19.25;6.05;;;18.10;1.00;;;;;;5009764;28;25084;-72
2022/05/14 08:40:22;;;;;;;20.30;6.30;;;18.20;1.00;;;;;;5009891;28;25106;-73
2022/05/14 08:42:51;;;;;;;20.55;5.95;;;19.10;1.00;;;;;;5006749;28;25078;-72
2022/05/14 08:45:22;;;;;;;24.08;6.90;;;19.60;1.00;;;;;;5009394;28;25138;-71
2022/05/14 08:48:25;;;;;;;24.67;6.10;;;19.70;1.00;;;;;;5008311;28;25124;-74
2022/05/14 08:51:03;;;;;;;26.55;7.70;;;20.30;1.00;;;;;;5004441;28;25069;-73
2022/05/14 08:53:31;;;;;;;25.65;7.20;;;19.20;1.00;;;;;;5023228;28;25056;-74
2022/05/14 08:56:21;;;;;;;25.23;7.80;;;19.50;1.00;;;;;;5025327;28;25142;-75
2022/05/14 08:59:08;;;;;;;20.40;7.60;;;19.90;1.00;;;;;;5015336;28;25067;-75
2022/05/14 09:01:37;;;;;;;15.25;5.75;;;20.50;1.00;;;;;;5007990;28;25113;-73
2022/05/14 09:04:04;;;;;;;20.00;6.13;;;20.50;1.00;;;;;;5009047;28;25129;-73
2022/05/14 09:06:29;;;;;;;23.23;5.97;;;20.80;1.00;;;;;;5007522;28;25061;-73
2022/05/14 09:08:55;;;;;;;19.58;5.10;;;21.30;1.00;;;;;;5008487;28;25070;-73
2022/05/14 09:11:36;;;;;;;19.88;5.65;;;21.60;1.00;;;;;;5006347;28;25083;-72
2022/05/14 09:14:06;;;;;;;19.02;5.40;;;22.00;1.00;;;;;;5007331;28;25062;-74
2022/05/14 09:16:35;;;;;;;23.10;5.65;;;22.00;1.00;;;;;;5008379;28;25092;-74
2022/05/14 09:19:12;;;;;;;17.92;5.10;;;21.90;1.00;;;;;;5007814;28;25078;-74
2022/05/14 09:21:47;;;;;;;22.45;5.53;;;20.80;1.00;;;;;;5013400;28;25089;-74
2022/05/14 09:24:26;;;;;;;19.38;5.38;;;21.30;1.00;;;;;;5007548;28;25139;-73
2022/05/14 09:26:56;;;;;;;16.50;4.85;;;21.60;1.00;;;;;;5009525;28;25059;-73
2022/05/14 09:29:29;;;;;;;13.88;4.70;;;22.00;1.00;;;;;;5007555;28;25051;-72
2022/05/14 09:32:01;;;;;;;24.58;5.22;;;22.50;1.00;;;;;;5007028;28;25073;-75
2022/05/14 09:34:28;;;;;;;24.23;5.00;;;22.00;1.00;;;;;;5005350;28;25110;-72
2022/05/14 09:37:10;;;;;;;17.67;4.43;;;21.90;1.00;;;;;;5004391;28;25145;-73
2022/05/14 09:39:36;;;;;;;17.90;5.67;;;22.20;1.00;;;;;;5002210;28;25076;-72
2022/05/14 09:42:04;;;;;;;24.75;7.72;;;21.90;1.00;;;;;;5002261;28;25102;-74
2022/05/14 09:44:42;;;;;;;21.10;5.78;;;21.20;1.00;;;;;;5001855;28;25058;-73
2022/05/14 09:47:24;;;;;;;18.80;5.78;;;20.80;1.00;;;;;;5007767;28;25089;-75
2022/05/14 09:49:59;;;;;;;19.60;5.55;;;21.50;1.00;;;;;;5010068;28;25083;-75
2022/05/14 09:52:32;;;;;;;19.77;6.28;;;21.00;1.00;;;;;;5007375;28;25083;-73
2022/05/14 09:55:01;;;;;;;17.33;5.63;;;21.00;1.00;;;;;;5008428;28;25051;-74
2022/05/14 09:57:33;;;;;;;20.20;5.53;;;21.70;1.00;;;;;;5007584;28;25126;-75
2022/05/14 10:00:14;;;;;;;18.70;5.88;;;22.00;1.00;;;;;;5008082;28;25158;-73
2022/05/14 10:03:06;;;;;;;24.88;5.38;;;22.50;1.00;;;;;;5007630;28;25076;-76
2022/05/14 10:05:47;;;;;;;14.20;5.33;;;22.90;1.00;;;;;;5008540;28;25052;-77
2022/05/14 10:08:47;;;;;;;19.85;4.68;;;22.50;1.00;;;;;;5006065;28;25148;-76
2022/05/14 10:11:33;;;;;;;18.50;5.55;;;22.40;1.00;;;;;;5011044;28;25057;-73
2022/05/14 10:14:03;;;;;;;12.40;4.50;;;22.00;1.00;;;;;;5007946;28;25144;-76
2022/05/14 10:16:54;;;;;;;23.58;5.38;;;21.70;1.00;;;;;;5007592;28;25090;-75
2022/05/14 10:19:27;;;;;;;18.52;5.57;;;21.60;1.00;;;;;;5007194;28;25085;-73
2022/05/14 10:22:10;;;;;;;20.08;5.53;;;21.20;1.00;;;;;;5004284;28;25080;-74
2022/05/14 10:27:52;;;;;;;16.10;5.25;;;20.80;1.00;;;;;;5006169;28;25142;-72
2022/05/14 10:30:25;;;;;;;16.92;5.15;;;20.80;1.00;;;;;;5007184;28;25072;-75
2022/05/14 10:33:03;;;;;;;21.10;5.85;;;21.30;1.00;;;;;;5005581;28;25156;-73
2022/05/14 10:35:35;;;;;;;27.67;5.75;;;21.40;1.00;;;;;;5006070;28;25140;-75
2022/05/14 10:38:11;;;;;;;14.63;5.00;;;22.10;1.00;;;;;;5004822;28;25066;-74
2022/05/14 10:41:04;;;;;;;14.68;4.97;;;21.90;1.00;;;;;;5005631;28;25110;-73
2022/05/14 10:43:47;;;;;;;16.35;5.60;;;21.70;1.00;;;;;;5006611;28;25065;-76
2022/05/14 10:46:20;;;;;;;18.67;5.40;;;21.50;1.00;;;;;;5004924;28;25075;-78
2022/05/14 10:49:07;;;;;;;15.70;5.45;;;21.90;1.00;;;;;;5007187;28;25059;-75
2022/05/14 10:51:37;;;;;;;14.77;4.22;;;22.70;1.00;;;;;;5007824;28;25081;-74
2022/05/14 10:54:03;;;;;;;16.48;5.53;;;22.80;1.00;;;;;;5009896;28;25155;-76
2022/05/14 10:56:33;;;;;;;20.13;5.25;;;23.20;1.00;;;;;;5007562;28;25066;-75
2022/05/14 10:59:11;;;;;;;16.35;5.10;;;23.50;1.00;;;;;;5007322;28;25159;-77
2022/05/14 11:01:47;;;;;;;16.95;5.38;;;23.00;1.00;;;;;;5004818;28;25178;-75
2022/05/14 11:04:30;;;;;;;14.02;4.82;;;22.40;1.00;;;;;;5006993;28;25157;-76
2022/05/14 11:06:58;;;;;;;19.38;5.97;;;22.10;1.00;;;;;;5006780;28;25111;-77
2022/05/14 11:09:45;;;;;;;22.17;6.28;;;22.00;1.00;;;;;;5010255;28;25170;-74
2022/05/14 11:12:30;;;;;;;25.05;5.43;;;21.60;1.00;;;;;;5005513;28;25067;-77
2022/05/14 11:14:58;;;;;;;21.60;6.75;;;21.00;1.00;;;;;;5012341;28;25061;-77
2022/05/14 11:17:36;;;;;;;24.73;5.80;;;21.20;1.00;;;;;;5010985;28;25080;-75
2022/05/14 11:20:04;;;;;;;22.77;5.50;;;21.60;1.00;;;;;;5013472;28;25174;-76
2022/05/14 11:22:50;;;;;;;21.45;5.43;;;22.20;1.00;;;;;;5012824;28;25069;-78
2022/05/14 11:25:21;;;;;;;14.55;5.30;;;22.30;1.00;;;;;;5015362;28;25056;-78
2022/05/14 11:28:07;;;;;;;15.90;4.97;;;22.90;1.00;;;;;;5017077;28;25065;-78
2022/05/14 11:30:47;;;;;;;20.27;5.10;;;23.70;1.00;;;;;;5015771;28;25070;-75
2022/05/14 11:33:39;;;;;;;16.38;5.57;;;23.70;1.00;;;;;;5009121;28;25103;-75
2022/05/14 11:36:11;;;;;;;20.13;5.95;;;22.90;1.00;;;;;;5019205;28;25075;-75
2022/05/14 11:38:40;;;;;;;17.10;4.68;;;22.70;1.00;;;;;;5032782;28;25075;-78
2022/05/14 11:41:08;;;;;;;15.23;5.28;;;23.00;1.00;;;;;;5028601;28;25071;-78
2022/05/14 11:43:33;;;;;;;16.52;5.82;;;23.00;1.00;;;;;;5030194;28;25090;-77
2022/05/14 11:46:37;;;;;;;10.35;4.55;;;22.80;1.00;;;;;;5015907;28;25102;-75
2022/05/14 11:49:34;;;;;;;15.80;5.55;;;22.90;1.00;;;;;;5016026;28;25155;-74
2022/05/14 11:52:24;;;;;;;15.68;4.70;;;22.30;1.00;;;;;;5013683;28;25050;-77
2022/05/14 11:54:58;;;;;;;12.82;4.43;;;22.20;1.00;;;;;;5012293;28;25081;-74
2022/05/14 11:57:46;;;;;;;22.85;6.18;;;22.80;1.00;;;;;;5011940;28;24976;-75
2022/05/14 12:00:27;;;;;;;18.65;5.70;;;22.60;1.00;;;;;;5007582;28;25138;-73
2022/05/14 12:03:00;;;;;;;12.60;4.97;;;22.00;1.00;;;;;;5008579;28;25067;-75
2022/05/14 12:05:36;;;;;;;14.95;5.32;;;21.50;1.00;;;;;;5010597;28;25164;-76
2022/05/14 12:08:33;;;;;;;17.98;5.93;;;22.10;1.00;;;;;;5011325;28;25060;-75
2022/05/14 12:11:20;;;;;;;15.10;4.63;;;22.70;1.00;;;;;;5011625;28;25140;-76
2022/05/14 12:14:09;;;;;;;18.60;5.88;;;23.40;1.00;;;;;;5020255;28;25086;-76
2022/05/14 12:16:48;;;;;;;20.20;5.30;;;24.00;1.00;;;;;;5019481;28;25144;-79
2022/05/14 12:19:17;;;;;;;14.63;4.32;;;24.40;1.00;;;;;;5018481;28;25061;-77
2022/05/14 12:21:49;;;;;;;19.02;4.72;;;24.00;1.00;;;;;;5017531;28;25066;-77
2022/05/14 12:24:42;;;;;;;12.75;4.60;;;24.20;1.00;;;;;;5012321;28;25052;-74
2022/05/14 12:27:15;;;;;;;11.50;4.47;;;24.10;1.00;;;;;;5006594;28;25138;-76
2022/05/14 12:29:53;;;;;;;16.35;5.03;;;24.60;1.00;;;;;;5015911;28;25083;-75
2022/05/14 12:35:17;;;;;;;16.65;4.85;;;24.30;1.00;;;;;;5021843;28;25076;-79
2022/05/14 12:37:43;;;;;;;12.52;5.18;;;23.50;1.00;;;;;;5017715;28;25075;-77
2022/05/14 12:40:25;;;;;;;11.82;4.65;;;23.00;1.00;;;;;;5033870;28;25145;-77
2022/05/14 12:42:52;;;;;;;16.90;5.90;;;22.60;1.00;;;;;;5014551;28;25050;-76
2022/05/14 12:45:17;;;;;;;16.38;4.95;;;23.00;1.00;;;;;;5014272;28;25051;-74
2022/05/14 12:47:43;;;;;;;18.33;5.65;;;23.50;1.00;;;;;;5015856;28;25060;-77
2022/05/14 12:50:24;;;;;;;18.77;5.18;;;23.90;1.00;;;;;;5014238;28;25052;-75
2022/05/14 12:52:56;;;;;;;15.97;5.43;;;23.90;1.00;;;;;;5014205;28;25077;-76
2022/05/14 12:55:24;;;;;;;16.52;4.60;;;23.50;1.00;;;;;;5022459;28;25160;-75
2022/05/14 12:57:50;;;;;;;17.27;5.57;;;23.50;1.00;;;;;;5019396;28;25057;-75
2022/05/14 13:00:17;;;;;;;15.13;5.40;;;23.40;1.00;;;;;;5019171;28;25087;-76
2022/05/14 13:03:12;;;;;;;13.13;5.00;;;23.30;1.00;;;;;;5013356;28;25054;-75
2022/05/14 13:05:45;;;;;;;16.95;5.85;;;23.70;1.00;;;;;;5007095;28;25129;-76
2022/05/14 13:08:13;;;;;;;18.92;6.40;;;23.00;1.00;;;;;;5016490;28;25067;-75
2022/05/14 13:10:45;;;;;;;17.65;5.10;;;23.30;1.00;;;;;;5015212;28;25051;-75
2022/05/14 13:13:10;;;;;;;19.40;6.00;;;23.40;1.00;;;;;;5011901;28;25115;-74
2022/05/14 13:15:38;;;;;;;20.60;6.80;;;23.40;1.00;;;;;;5012272;28;25068;-77